ドーハ国際空港の過去48時間の天気

ドーハ国際空港 (Doha International Airport)

現在時刻: 1/23 06:26 +03 (1/23 03:26 UTC) 以下の時間は現地時間です。

過去48時間のMETAR気象情報
時間 風向 風速(m/s) 視程 気温(℃) 湿度(%) 気圧(hPa) 天気現象
23 06:00 北西 3 10km以上 19 73 1016
23 05:30 北西 3 10km以上 20 73 1016
23 05:00 西北西 3 10km以上 20 73 1015
23 04:30 西北西 4 10km以上 20 73 1015
23 04:00 西 5 10km以上 20 78 1014
23 03:30 南東 5 10km以上 20 78 1014
23 03:00 東南東 6 10km以上 20 78 1014
23 02:30 東南東 6 10km以上 20 83 1014
23 02:00 東南東 6 10km以上 20 78 1014
23 01:30 東南東 6 10km以上 20 83 1014
23 01:00 東南東 5 10km以上 20 83 1015
23 00:30 東南東 4 10km以上 20 78 1015
23 00:00 5 10km以上 20 78 1015
22 23:30 3 10km以上 20 78 1015
22 23:00 3 10km以上 20 78 1015
22 22:30 3 10km以上 20 73 1015
22 22:00 3 10km以上 20 78 1015
22 21:30 東南東 3 10km以上 20 78 1015
22 21:00 東南東 4 10km以上 20 73 1015
22 20:30 東南東 5 10km以上 20 73 1015
22 20:00 東南東 6 10km以上 20 73 1015
22 19:30 5 10km以上 20 73 1016
22 19:00 5 10km以上 20 73 1015
22 18:30 5 10km以上 20 73 1015
22 18:00 5 10km以上 20 73 1015
22 17:30 東北東 5 10km以上 20 73 1015
22 17:00 東北東 5 10km以上 21 69 1015
22 16:30 5 10km以上 21 69 1014
22 16:00 4 10km以上 21 69 1014
22 15:30 5 10km以上 22 60 1014
22 15:00 東南東 6 10km以上 23 53 1014
22 14:30 南東 8 10km以上 22 53 1014
22 14:00 南東 8 10km以上 22 50 1014
22 13:30 南東 8 10km以上 22 50 1014
22 13:00 南東 8 10km以上 23 47 1015
22 12:30 南東 9 10km以上 22 50 1015
22 12:00 南東 9 10km以上 22 50 1015
22 11:30 南東 9 10km以上 22 53 1016
22 11:00 南東 8 10km以上 22 57 1017
22 10:30 南東 8 10km以上 22 57 1017
22 10:00 南東 8 10km以上 21 60 1017
22 09:30 南東 7 10km以上 21 64 1018
22 09:00 4 10km以上 20 68 1018
22 08:30 南南東 4 10km以上 19 68 1017
22 08:00 南南東 3 10km以上 19 68 1017
22 07:30 南南東 3 10km以上 17 72 1017
22 07:00 南東 1 10km以上 16 72 1017
22 06:30 南東 2 10km以上 16 72 1016
22 06:00 南南東 2 10km以上 16 72 1016
22 05:30 3 10km以上 17 72 1016
22 05:00 2 10km以上 17 68 1015
22 04:30 2 10km以上 17 68 1015
22 04:00 南東 1 10km以上 16 68 1015
22 03:30 2 10km以上 17 63 1015
22 03:00 南南東 2 10km以上 16 68 1015
22 02:30 1 10km以上 16 68 1015
22 02:00 不定 1 10km以上 17 63 1016
22 01:30 不定 1 10km以上 17 63 1016
22 01:00 不定 1 10km以上 17 63 1016
22 00:30 南西 1 10km以上 18 64 1017
22 00:00 不定 1 10km以上 18 64 1017
21 23:30 不定 1 10km以上 18 64 1017
21 23:00 不定 1 10km以上 18 64 1017
21 22:30 静穏 0 10km以上 18 64 1017
21 22:00 静穏 0 10km以上 18 64 1018
21 21:30 不定 1 10km以上 18 64 1017
21 21:00 2 10km以上 18 64 1017
21 20:30 2 10km以上 18 64 1017
21 20:00 北北東 2 10km以上 19 60 1017
21 19:30 北北東 2 10km以上 19 60 1017
21 19:00 北東 2 10km以上 19 60 1017
21 18:30 北北東 4 10km以上 20 53 1017
21 18:00 北北東 5 10km以上 20 53 1016
21 17:30 北北東 5 10km以上 20 53 1016
21 17:00 北北東 4 10km以上 20 56 1016
21 16:30 北北東 5 10km以上 21 49 1016
21 16:00 5 10km以上 21 49 1016
21 15:30 北北東 6 10km以上 21 53 1016
21 15:00 北北東 6 10km以上 22 46 1016
21 14:30 北北東 7 10km以上 22 46 1016
21 14:00 北北東 7 10km以上 22 43 1016
21 13:30 6 10km以上 22 43 1016
21 13:00 北北東 5 10km以上 22 43 1017
21 12:30 北北東 6 10km以上 22 41 1017
21 12:00 6 10km以上 22 43 1018
21 11:30 北北西 6 10km以上 22 41 1018
21 11:00 北北西 6 10km以上 22 41 1018
21 10:30 北北西 7 10km以上 22 38 1019
21 10:00 北北西 6 10km以上 21 43 1019
21 09:30 北北西 6 10km以上 21 43 1019
21 09:00 北北西 5 10km以上 21 49 1019
21 08:30 北北西 5 10km以上 20 53 1019
21 08:00 北北西 3 10km以上 19 64 1019
21 07:30 北西 3 10km以上 18 73 1018
21 07:00 西北西 3 10km以上 17 83 1018
21 06:30 西北西 4 8000m 17 77 1018
OTBD 230300Z 31006KT CAVOK 19/14 Q1016 NOSIG
OTBD 230230Z 31006KT 9999 FEW025 SCT090 20/15 Q1016 NOSIG
OTBD 230200Z 29005KT 260V320 9999 FEW025 SCT090 20/15 Q1015 NOSIG
OTBD 230130Z 29007KT 250V310 CAVOK 20/15 Q1015 NOSIG
OTBD 230100Z AUTO 27010KT CAVOK 20/16 Q1014 NOSIG
OTBD 230030Z AUTO 13010KT CAVOK 20/16 Q1014 NOSIG
OTBD 230000Z AUTO 12012KT CAVOK 20/16 Q1014 NOSIG
OTBD 222330Z AUTO 12011KT CAVOK 20/17 Q1014 NOSIG
OTBD 222300Z AUTO 12011KT CAVOK 20/16 Q1014 NOSIG
OTBD 222230Z AUTO 12012KT CAVOK 20/17 Q1014 NOSIG
OTBD 222200Z AUTO 11010KT CAVOK 20/17 Q1015 NOSIG
OTBD 222130Z AUTO 12007KT CAVOK 20/16 Q1015 NOSIG
OTBD 222100Z AUTO 10009KT CAVOK 20/16 Q1015 NOSIG
OTBD 222030Z AUTO 10006KT CAVOK 20/16 Q1015 NOSIG
OTBD 222000Z AUTO 10006KT CAVOK 20/16 Q1015 NOSIG
OTBD 221930Z AUTO 10005KT 070V130 CAVOK 20/15 Q1015 NOSIG
OTBD 221900Z AUTO 09005KT CAVOK 20/16 Q1015 NOSIG
OTBD 221830Z AUTO 11006KT CAVOK 20/16 Q1015 NOSIG
OTBD 221800Z AUTO 11007KT CAVOK 20/15 Q1015 NOSIG
OTBD 221730Z AUTO 11009KT CAVOK 20/15 Q1015 NOSIG
OTBD 221700Z AUTO 11011KT CAVOK 20/15 Q1015 NOSIG
OTBD 221630Z AUTO 09009KT CAVOK 20/15 Q1016 NOSIG
OTBD 221600Z AUTO 09010KT CAVOK 20/15 Q1015 NOSIG
OTBD 221530Z AUTO 09010KT CAVOK 20/15 Q1015 NOSIG
OTBD 221500Z AUTO 08009KT CAVOK 20/15 Q1015 NOSIG
OTBD 221430Z AUTO 07009KT CAVOK 20/15 Q1015 NOSIG
OTBD 221400Z AUTO 07010KT CAVOK 21/15 Q1015 NOSIG
OTBD 221330Z AUTO 08009KT CAVOK 21/15 Q1014 NOSIG
OTBD 221300Z AUTO 09008KT CAVOK 21/15 Q1014 NOSIG
OTBD 221230Z AUTO 10009KT CAVOK 22/14 Q1014 NOSIG
OTBD 221200Z AUTO 12012KT CAVOK 23/13 Q1014 NOSIG
OTBD 221130Z AUTO 13015KT CAVOK 22/12 Q1014 NOSIG
OTBD 221100Z AUTO 13016KT CAVOK 22/11 Q1014 NOSIG
OTBD 221030Z AUTO 13016KT CAVOK 22/11 Q1014 NOSIG
OTBD 221000Z AUTO 13016KT CAVOK 23/11 Q1015 NOSIG
OTBD 220930Z AUTO 13017KT CAVOK 22/11 Q1015 NOSIG
OTBD 220900Z AUTO 14017KT CAVOK 22/11 Q1015 NOSIG
OTBD 220830Z AUTO 14017KT CAVOK 22/12 Q1016 NOSIG
OTBD 220800Z AUTO 14016KT CAVOK 22/13 Q1017 NOSIG
OTBD 220730Z AUTO 14016KT CAVOK 22/13 Q1017 NOSIG
OTBD 220700Z AUTO 14016KT CAVOK 21/13 Q1017 NOSIG
OTBD 220630Z AUTO 14014KT CAVOK 21/14 Q1018 NOSIG
OTBD 220600Z AUTO 17008KT CAVOK 20/14 Q1018 NOSIG
OTBD 220530Z AUTO 16008KT CAVOK 19/13 Q1017 NOSIG
OTBD 220500Z AUTO 16006KT CAVOK 19/13 Q1017 NOSIG
OTBD 220430Z AUTO 15005KT CAVOK 17/12 Q1017 NOSIG
OTBD 220400Z AUTO 13002KT CAVOK 16/11 Q1017 NOSIG
OTBD 220330Z AUTO 13003KT CAVOK 16/11 Q1016 NOSIG
OTBD 220300Z AUTO 15004KT CAVOK 16/11 Q1016 NOSIG
OTBD 220230Z AUTO 18005KT CAVOK 17/12 Q1016 NOSIG
OTBD 220200Z AUTO 18004KT CAVOK 17/11 Q1015 NOSIG
OTBD 220130Z AUTO 18003KT 150V210 CAVOK 17/11 Q1015 NOSIG
OTBD 220100Z 14002KT CAVOK 16/10 Q1015 NOSIG
OTBD 220030Z AUTO 17003KT 140V210 CAVOK 17/10 Q1015 NOSIG
OTBD 220000Z AUTO 16004KT CAVOK 16/10 Q1015 NOSIG
OTBD 212330Z AUTO 17002KT CAVOK 16/10 Q1015 NOSIG
OTBD 212300Z AUTO VRB01KT CAVOK 17/10 Q1016 NOSIG
OTBD 212230Z AUTO VRB02KT CAVOK 17/10 Q1016 NOSIG
OTBD 212200Z AUTO VRB02KT CAVOK 17/10 Q1016 NOSIG
OTBD 212130Z AUTO 23002KT CAVOK 18/11 Q1017 NOSIG
OTBD 212100Z AUTO VRB02KT CAVOK 18/11 Q1017 NOSIG
OTBD 212030Z AUTO VRB02KT CAVOK 18/11 Q1017 NOSIG
OTBD 212000Z AUTO VRB01KT CAVOK 18/11 Q1017 NOSIG
OTBD 211930Z AUTO 00000KT CAVOK 18/11 Q1017 NOSIG
OTBD 211900Z AUTO 00000KT CAVOK 18/11 Q1018 NOSIG
OTBD 211830Z AUTO VRB02KT CAVOK 18/11 Q1017 NOSIG
OTBD 211800Z AUTO 01003KT CAVOK 18/11 Q1017 NOSIG
OTBD 211730Z AUTO 01004KT CAVOK 18/11 Q1017 NOSIG
OTBD 211700Z AUTO 02004KT CAVOK 19/11 Q1017 NOSIG
OTBD 211630Z AUTO 03003KT CAVOK 19/11 Q1017 NOSIG
OTBD 211600Z AUTO 04003KT 010V070 CAVOK 19/11 Q1017 NOSIG
OTBD 211530Z AUTO 02007KT CAVOK 20/10 Q1017 NOSIG
OTBD 211500Z AUTO 02009KT CAVOK 20/10 Q1016 NOSIG
OTBD 211430Z AUTO 02009KT CAVOK 20/10 Q1016 NOSIG
OTBD 211400Z AUTO 02008KT CAVOK 20/11 Q1016 NOSIG
OTBD 211330Z AUTO 02009KT CAVOK 21/10 Q1016 NOSIG
OTBD 211300Z AUTO 01010KT CAVOK 21/10 Q1016 NOSIG
OTBD 211230Z AUTO 02011KT CAVOK 21/11 Q1016 NOSIG
OTBD 211200Z AUTO 02012KT CAVOK 22/10 Q1016 NOSIG
OTBD 211130Z 02013KT CAVOK 22/10 Q1016 NOSIG
OTBD 211100Z AUTO 02013KT CAVOK 22/09 Q1016 NOSIG
OTBD 211030Z AUTO 01011KT CAVOK 22/09 Q1016 NOSIG
OTBD 211000Z AUTO 02009KT CAVOK 22/09 Q1017 NOSIG
OTBD 210930Z AUTO 02011KT CAVOK 22/08 Q1017 NOSIG
OTBD 210900Z AUTO 01011KT CAVOK 22/09 Q1018 NOSIG
OTBD 210830Z AUTO 34012KT CAVOK 22/08 Q1018 NOSIG
OTBD 210800Z AUTO 34012KT CAVOK 22/08 Q1018 NOSIG
OTBD 210730Z AUTO 34013KT CAVOK 22/07 Q1019 NOSIG
OTBD 210700Z AUTO 34012KT CAVOK 21/08 Q1019 NOSIG
OTBD 210630Z AUTO 33011KT 290V350 CAVOK 21/08 Q1019 NOSIG
OTBD 210600Z AUTO 33010KT CAVOK 21/10 Q1019 NOSIG
OTBD 210530Z AUTO 33009KT CAVOK 20/10 Q1019 NOSIG
OTBD 210500Z AUTO 33006KT CAVOK 19/12 Q1019 NOSIG
OTBD 210430Z 31005KT 280V340 CAVOK 18/13 Q1018 NOSIG
OTBD 210400Z 30006KT 260V330 CAVOK 17/14 Q1018 NOSIG
OTBD 210330Z 30007KT 8000 NSC 17/13 Q1018 NOSIG